Time;durP1;ratioP1;P1;durP2;ratioP2;P2;SDS_P1;SDS_P2;PMS_P1;PMS_P2;Temp;Humidity;BMP_temperature;BMP_pressure;BME280_temperature;BME280_humidity;BME280_pressure;Samples;Min_cycle;Max_cycle;Signal;HPM_P1;HPM_P2
2022/11/13 00:00:55;;;;;;;28.27;18.73;;;8.60;99.90;;;;;;5058047;28;20181;-65
2022/11/13 00:03:22;;;;;;;29.70;18.17;;;8.50;99.90;;;;;;5060804;28;20717;-64
2022/11/13 00:05:47;;;;;;;27.40;18.23;;;8.50;99.90;;;;;;5056587;28;20210;-64
2022/11/13 00:08:13;;;;;;;26.03;19.13;;;8.50;99.90;;;;;;5067959;28;20229;-63
2022/11/13 00:10:39;;;;;;;24.77;17.60;;;8.50;99.90;;;;;;5065241;28;20224;-64
2022/11/13 00:13:05;;;;;;;27.63;17.73;;;8.40;99.90;;;;;;5071951;28;20220;-64
2022/11/13 00:15:31;;;;;;;25.97;18.87;;;8.40;99.90;;;;;;5060729;28;20181;-64
2022/11/13 00:18:01;;;;;;;21.27;16.13;;;8.50;99.90;;;;;;5084890;28;20264;-65
2022/11/13 00:20:27;;;;;;;26.57;17.30;;;8.50;99.90;;;;;;5060819;28;20194;-63
2022/11/13 00:22:52;;;;;;;22.80;16.97;;;8.50;99.90;;;;;;5065547;28;20186;-64
2022/11/13 00:25:18;;;;;;;26.53;16.50;;;8.40;99.90;;;;;;5052394;28;20185;-64
2022/11/13 00:27:43;;;;;;;23.23;17.47;;;8.40;99.90;;;;;;5064906;28;20181;-65
2022/11/13 00:30:09;;;;;;;23.30;17.07;;;8.40;99.90;;;;;;5051643;28;20589;-64
2022/11/13 00:32:36;;;;;;;25.27;17.27;;;8.30;99.90;;;;;;5065018;28;20244;-64
2022/11/13 00:35:03;;;;;;;22.47;15.87;;;8.30;99.90;;;;;;5069810;28;20189;-64
2022/11/13 00:37:28;;;;;;;24.93;17.10;;;8.30;99.90;;;;;;5058275;28;20586;-65
2022/11/13 00:39:54;;;;;;;28.50;18.97;;;8.30;99.90;;;;;;5051243;28;20186;-63
2022/11/13 00:42:20;;;;;;;23.17;16.43;;;8.30;99.90;;;;;;5078070;28;20197;-64
2022/11/13 00:44:45;;;;;;;27.53;18.80;;;8.30;99.90;;;;;;5056744;28;20193;-64
2022/11/13 00:47:11;;;;;;;24.23;17.27;;;8.30;99.90;;;;;;5071494;28;20193;-64
2022/11/13 00:49:37;;;;;;;25.90;18.10;;;8.20;99.90;;;;;;5058407;28;20186;-64
2022/11/13 00:52:03;;;;;;;28.17;18.60;;;8.20;99.90;;;;;;5052256;28;20192;-64
2022/11/13 00:54:28;;;;;;;36.00;20.07;;;8.20;99.90;;;;;;5052615;28;20686;-64
2022/11/13 00:56:54;;;;;;;25.50;18.13;;;8.20;99.90;;;;;;5052087;28;20186;-65
2022/11/13 00:59:20;;;;;;;26.07;16.97;;;8.10;99.90;;;;;;5053032;28;20189;-64
2022/11/13 01:01:45;;;;;;;27.33;18.60;;;8.20;99.90;;;;;;5051555;28;20197;-64
2022/11/13 01:04:11;;;;;;;30.23;19.47;;;8.10;99.90;;;;;;5053717;28;20234;-64
2022/11/13 01:06:37;;;;;;;36.10;23.03;;;8.00;99.90;;;;;;5060843;28;20727;-63
2022/11/13 01:09:03;;;;;;;31.37;21.10;;;8.30;99.90;;;;;;5050352;28;20183;-64
2022/11/13 01:11:29;;;;;;;23.33;17.43;;;8.30;99.90;;;;;;5057916;28;20185;-63
2022/11/13 01:13:56;;;;;;;32.83;21.17;;;8.20;99.90;;;;;;5063747;28;20217;-65
2022/11/13 01:16:24;;;;;;;26.27;20.43;;;8.10;99.90;;;;;;5052125;28;20194;-64
2022/11/13 01:18:53;;;;;;;28.23;19.97;;;8.00;99.90;;;;;;5052439;28;20186;-64
2022/11/13 01:21:26;;;;;;;28.83;18.90;;;8.00;99.90;;;;;;5070266;28;20178;-64
2022/11/13 01:23:53;;;;;;;31.77;21.40;;;8.10;99.90;;;;;;5060321;28;20261;-64
2022/11/13 01:26:29;;;;;;;29.70;19.33;;;8.00;99.90;;;;;;5054170;28;20190;-64
2022/11/13 01:28:56;;;;;;;27.57;19.03;;;8.00;99.90;;;;;;5055278;28;20557;-65
2022/11/13 01:31:24;;;;;;;27.23;18.97;;;7.90;99.90;;;;;;5053784;28;20186;-64
2022/11/13 01:33:50;;;;;;;28.77;18.30;;;7.90;99.90;;;;;;5055764;28;20220;-63
2022/11/13 01:36:22;;;;;;;27.80;17.63;;;7.90;99.90;;;;;;5058732;28;20197;-63
2022/11/13 01:38:49;;;;;;;26.10;17.30;;;7.90;99.90;;;;;;5065752;28;20181;-64
2022/11/13 01:41:19;;;;;;;26.90;17.40;;;7.90;99.90;;;;;;5059500;28;20217;-63
2022/11/13 01:43:46;;;;;;;24.47;17.87;;;7.90;99.90;;;;;;5073157;28;20196;-65
2022/11/13 01:46:15;;;;;;;20.77;16.33;;;7.90;99.90;;;;;;5056856;28;20204;-65
2022/11/13 01:49:05;;;;;;;26.47;18.03;;;7.80;99.90;;;;;;5069278;28;20231;-65
2022/11/13 01:51:38;;;;;;;22.40;17.13;;;7.80;99.90;;;;;;5059820;28;20215;-65
2022/11/13 01:54:12;;;;;;;26.10;17.33;;;7.80;99.90;;;;;;5054851;28;20238;-64
2022/11/13 01:56:39;;;;;;;25.07;16.77;;;7.80;99.90;;;;;;5054774;28;20182;-65
2022/11/13 01:59:27;;;;;;;28.03;17.93;;;7.80;99.90;;;;;;5058380;28;20202;-64
2022/11/13 02:01:54;;;;;;;21.63;17.00;;;7.80;99.90;;;;;;5056463;28;20174;-64
2022/11/13 02:04:20;;;;;;;26.27;18.23;;;7.80;99.90;;;;;;5054477;28;20194;-64
2022/11/13 02:06:53;;;;;;;25.50;17.20;;;7.80;99.90;;;;;;5097230;28;20706;-64
2022/11/13 02:09:24;;;;;;;26.97;16.90;;;7.80;99.90;;;;;;5058950;28;20197;-64
2022/11/13 02:11:50;;;;;;;25.37;17.77;;;7.80;99.90;;;;;;5063019;28;20185;-64
2022/11/13 02:14:18;;;;;;;23.10;16.50;;;7.70;99.90;;;;;;5063966;28;20782;-64
2022/11/13 02:16:47;;;;;;;24.43;17.50;;;7.70;99.90;;;;;;5069468;28;20190;-63
2022/11/13 02:19:28;;;;;;;25.03;18.57;;;7.70;99.90;;;;;;5054517;28;20177;-64
2022/11/13 02:22:14;;;;;;;28.77;19.03;;;7.70;99.90;;;;;;5063214;28;20189;-62
2022/11/13 02:24:42;;;;;;;31.33;18.57;;;7.80;99.90;;;;;;5058587;28;20193;-63
2022/11/13 02:27:32;;;;;;;31.17;18.93;;;7.90;99.90;;;;;;5064350;28;20573;-63
2022/11/13 02:29:58;;;;;;;26.87;19.30;;;7.70;99.90;;;;;;5051778;28;20263;-64
2022/11/13 02:32:24;;;;;;;27.27;18.40;;;7.70;99.90;;;;;;5052898;28;20190;-64
2022/11/13 02:34:49;;;;;;;29.43;20.17;;;7.70;99.90;;;;;;5053877;28;20240;-64
2022/11/13 02:37:15;;;;;;;23.37;18.70;;;7.60;99.90;;;;;;5054778;28;20243;-64
2022/11/13 02:39:41;;;;;;;25.43;18.70;;;7.50;99.90;;;;;;5066912;28;20196;-64
2022/11/13 02:42:06;;;;;;;29.53;18.73;;;7.50;99.90;;;;;;5062552;28;20194;-64
2022/11/13 02:44:32;;;;;;;21.10;16.50;;;7.70;99.90;;;;;;5053683;28;20624;-64
2022/11/13 02:46:57;;;;;;;23.83;17.80;;;7.60;99.90;;;;;;5058233;28;20690;-64
2022/11/13 02:49:23;;;;;;;23.43;17.57;;;7.50;99.90;;;;;;5069268;28;20185;-65
2022/11/13 02:51:49;;;;;;;23.87;17.10;;;7.50;99.90;;;;;;5053812;28;20200;-65
2022/11/13 02:54:14;;;;;;;26.13;17.53;;;7.40;99.90;;;;;;5053038;28;20214;-64
2022/11/13 02:56:40;;;;;;;23.70;17.33;;;7.40;99.90;;;;;;5052934;28;20610;-65
2022/11/13 02:59:06;;;;;;;21.93;16.77;;;7.40;99.90;;;;;;5054632;28;20197;-64
2022/11/13 03:01:31;;;;;;;24.67;18.33;;;7.30;99.90;;;;;;5054147;28;20190;-64
2022/11/13 03:03:57;;;;;;;26.17;17.47;;;7.30;99.90;;;;;;5053533;28;20550;-64
2022/11/13 03:06:23;;;;;;;23.70;18.87;;;7.30;99.90;;;;;;5053428;28;20239;-64
2022/11/13 03:08:48;;;;;;;21.50;16.43;;;7.20;99.90;;;;;;5055407;28;20638;-64
2022/11/13 03:11:14;;;;;;;23.53;17.80;;;7.20;99.90;;;;;;5062852;28;20192;-64
2022/11/13 03:13:40;;;;;;;23.23;16.93;;;7.10;99.90;;;;;;5048055;28;20226;-65
2022/11/13 03:16:13;;;;;;;23.50;18.13;;;7.20;99.90;;;;;;5057536;28;20193;-64
2022/11/13 03:18:40;;;;;;;24.93;16.20;;;7.20;99.90;;;;;;5057295;28;20337;-65
2022/11/13 03:21:11;;;;;;;25.70;19.03;;;7.10;99.90;;;;;;5051967;28;20699;-64
2022/11/13 03:23:37;;;;;;;25.17;18.37;;;7.10;99.90;;;;;;5064363;28;20197;-64
2022/11/13 03:26:08;;;;;;;24.47;18.13;;;7.00;99.90;;;;;;5066403;28;20197;-65
2022/11/13 03:28:34;;;;;;;27.20;19.63;;;7.00;99.90;;;;;;5054850;28;20635;-64
2022/11/13 03:31:01;;;;;;;24.03;17.70;;;7.00;99.90;;;;;;5061464;28;20170;-64
2022/11/13 03:33:26;;;;;;;25.90;18.23;;;6.90;99.90;;;;;;5052456;28;20213;-64
2022/11/13 03:35:52;;;;;;;29.90;18.60;;;6.90;99.90;;;;;;5051991;28;20189;-65
2022/11/13 03:38:18;;;;;;;25.70;17.77;;;6.90;99.90;;;;;;5053325;28;20527;-65
2022/11/13 03:40:43;;;;;;;21.80;16.83;;;6.80;99.90;;;;;;5053249;28;20198;-64
2022/11/13 03:43:09;;;;;;;28.57;19.83;;;6.90;99.90;;;;;;5056776;28;20677;-65
2022/11/13 03:45:35;;;;;;;42.30;25.10;;;6.80;99.90;;;;;;5068729;28;20669;-64
2022/11/13 03:48:00;;;;;;;67.17;40.97;;;6.80;99.90;;;;;;5057939;28;20571;-64
2022/11/13 03:50:26;;;;;;;72.13;40.80;;;6.80;99.90;;;;;;5052913;28;20190;-64
2022/11/13 03:52:52;;;;;;;55.67;36.13;;;6.90;99.90;;;;;;5051539;28;20245;-64
2022/11/13 03:55:18;;;;;;;49.73;33.77;;;6.90;99.90;;;;;;5058703;28;20189;-65
2022/11/13 03:57:45;;;;;;;47.37;30.33;;;6.90;99.90;;;;;;5053225;28;20277;-64
2022/11/13 04:00:11;;;;;;;50.30;30.23;;;6.90;99.90;;;;;;5052234;28;20190;-64
2022/11/13 04:02:37;;;;;;;37.00;24.60;;;6.90;99.90;;;;;;5058726;28;20269;-64
2022/11/13 04:05:03;;;;;;;36.77;22.90;;;6.90;99.90;;;;;;5053301;28;21459;-64
2022/11/13 04:07:28;;;;;;;30.80;21.57;;;7.00;99.90;;;;;;5060055;28;20212;-64
2022/11/13 04:09:54;;;;;;;30.67;20.33;;;7.00;99.90;;;;;;5069636;28;20263;-65
2022/11/13 04:12:20;;;;;;;24.70;17.90;;;7.10;99.90;;;;;;5052175;28;20198;-64
2022/11/13 04:14:45;;;;;;;24.40;18.43;;;7.10;99.90;;;;;;5064981;28;20233;-62
2022/11/13 04:17:11;;;;;;;21.60;16.33;;;7.00;99.90;;;;;;5073968;28;20198;-65
2022/11/13 04:19:37;;;;;;;23.17;16.97;;;6.90;99.90;;;;;;5061580;28;20234;-67
2022/11/13 04:22:02;;;;;;;22.03;17.23;;;6.80;99.90;;;;;;5053725;28;20190;-65
2022/11/13 04:24:28;;;;;;;22.33;16.60;;;6.80;99.90;;;;;;5054108;28;20198;-64
2022/11/13 04:26:54;;;;;;;26.13;18.10;;;6.80;99.90;;;;;;5051988;28;20189;-65
2022/11/13 04:29:19;;;;;;;20.30;16.10;;;6.90;99.90;;;;;;5058601;28;20185;-65
2022/11/13 04:31:45;;;;;;;26.43;18.73;;;6.90;99.90;;;;;;5066436;28;20197;-64
2022/11/13 04:34:11;;;;;;;23.77;15.77;;;6.90;99.90;;;;;;5056206;28;20209;-65
2022/11/13 04:36:36;;;;;;;18.90;15.07;;;7.00;99.90;;;;;;5070976;28;20185;-64
2022/11/13 04:39:02;;;;;;;21.63;14.80;;;7.00;99.90;;;;;;5067875;28;20556;-64
2022/11/13 04:44:12;;;;;;;20.43;14.77;;;7.00;99.90;;;;;;5062194;28;20262;-64
2022/11/13 04:46:37;;;;;;;23.20;15.93;;;7.00;99.90;;;;;;5069502;28;20646;-65
2022/11/13 04:49:03;;;;;;;20.43;15.50;;;7.00;99.90;;;;;;5066794;28;20224;-65
2022/11/13 04:51:29;;;;;;;22.43;15.73;;;7.00;99.90;;;;;;5058452;28;20246;-65
2022/11/13 04:53:55;;;;;;;18.90;15.73;;;7.00;99.90;;;;;;5070808;28;20217;-64
2022/11/13 04:56:21;;;;;;;23.80;16.23;;;7.00;99.90;;;;;;5062224;28;20685;-64
2022/11/13 04:58:47;;;;;;;20.33;16.00;;;7.00;99.90;;;;;;5094795;28;20193;-64
2022/11/13 05:01:12;;;;;;;21.47;15.77;;;7.00;99.90;;;;;;5064502;28;20193;-65
2022/11/13 05:03:38;;;;;;;25.30;16.63;;;7.00;99.90;;;;;;5060916;28;20217;-65
2022/11/13 05:06:06;;;;;;;20.67;14.90;;;7.00;99.90;;;;;;5067957;28;20219;-64
2022/11/13 05:08:32;;;;;;;19.33;15.10;;;6.90;99.90;;;;;;5044022;28;20246;-65
2022/11/13 05:10:57;;;;;;;22.93;16.13;;;6.80;99.90;;;;;;5070654;28;20189;-64
2022/11/13 05:13:23;;;;;;;22.13;16.70;;;6.80;99.90;;;;;;5066875;28;20213;-65
2022/11/13 05:15:49;;;;;;;21.87;15.53;;;6.70;99.90;;;;;;5055635;28;20277;-64
2022/11/13 05:18:14;;;;;;;17.03;15.20;;;6.60;99.90;;;;;;5054359;28;20287;-62
2022/11/13 05:20:40;;;;;;;17.40;15.07;;;6.50;99.90;;;;;;5055816;28;20192;-63
2022/11/13 05:23:06;;;;;;;18.27;14.73;;;6.50;99.90;;;;;;5071454;28;20197;-63
2022/11/13 05:25:31;;;;;;;22.43;16.90;;;6.50;99.90;;;;;;5058479;28;20197;-63
2022/11/13 05:27:57;;;;;;;21.53;16.03;;;6.60;99.90;;;;;;5073870;28;20273;-62
2022/11/13 05:30:23;;;;;;;27.03;17.87;;;6.60;99.90;;;;;;5055606;28;20189;-63
2022/11/13 05:32:50;;;;;;;23.60;15.50;;;6.60;99.90;;;;;;5067791;28;20712;-63
2022/11/13 05:35:16;;;;;;;23.57;17.03;;;6.70;99.90;;;;;;5068230;28;20217;-63
2022/11/13 05:37:42;;;;;;;21.87;16.57;;;6.60;99.90;;;;;;5061355;28;20221;-64
2022/11/13 05:40:08;;;;;;;26.30;18.77;;;6.50;99.90;;;;;;5074739;28;20597;-63
2022/11/13 05:42:34;;;;;;;25.37;18.07;;;6.40;99.90;;;;;;5063792;28;20663;-63
2022/11/13 05:44:59;;;;;;;24.83;17.03;;;6.30;99.90;;;;;;5055005;28;20214;-63
2022/11/13 05:47:25;;;;;;;21.43;15.77;;;6.20;99.90;;;;;;5065472;28;20217;-63
2022/11/13 05:49:51;;;;;;;21.73;16.70;;;6.20;99.90;;;;;;5066540;28;20186;-63
2022/11/13 05:52:16;;;;;;;23.50;17.30;;;6.20;99.90;;;;;;5068894;28;20197;-64
2022/11/13 05:54:42;;;;;;;21.03;15.20;;;6.10;99.90;;;;;;5061956;28;20612;-64
2022/11/13 05:57:08;;;;;;;21.50;16.90;;;6.20;99.90;;;;;;5070558;28;20190;-64
2022/11/13 05:59:33;;;;;;;19.80;15.80;;;6.20;99.90;;;;;;5074245;28;20700;-64
2022/11/13 06:01:59;;;;;;;17.77;15.10;;;6.10;99.90;;;;;;5059453;28;20186;-65
2022/11/13 06:04:24;;;;;;;18.03;15.47;;;6.10;99.90;;;;;;5055213;28;20224;-64
2022/11/13 06:06:51;;;;;;;23.00;14.67;;;6.10;99.90;;;;;;5053206;28;20589;-64
2022/11/13 06:09:17;;;;;;;25.63;16.90;;;6.10;99.90;;;;;;5091284;28;20198;-64
2022/11/13 06:11:43;;;;;;;20.93;15.87;;;6.00;99.90;;;;;;5054849;28;20587;-64
2022/11/13 06:14:09;;;;;;;21.97;17.37;;;6.00;99.90;;;;;;5056912;28;20304;-64
2022/11/13 06:16:36;;;;;;;19.70;15.77;;;6.00;99.90;;;;;;5058661;28;20583;-65
2022/11/13 06:19:06;;;;;;;25.43;16.53;;;6.00;99.90;;;;;;5054927;28;20182;-64
2022/11/13 06:21:34;;;;;;;18.23;15.60;;;6.00;99.90;;;;;;5053717;28;20178;-64
2022/11/13 06:24:00;;;;;;;21.03;15.53;;;5.90;99.90;;;;;;5053742;28;20189;-64
2022/11/13 06:26:28;;;;;;;23.40;16.23;;;5.90;99.90;;;;;;5062002;28;20673;-64
2022/11/13 06:28:54;;;;;;;24.50;17.83;;;5.90;99.90;;;;;;5068475;28;20182;-63
2022/11/13 06:31:23;;;;;;;19.47;14.90;;;5.90;99.90;;;;;;5069501;28;20579;-63
2022/11/13 06:33:48;;;;;;;22.93;16.57;;;5.90;99.90;;;;;;5064895;28;20562;-64
2022/11/13 06:36:17;;;;;;;22.77;15.93;;;5.90;99.90;;;;;;5054338;28;20178;-64
2022/11/13 06:38:43;;;;;;;20.93;15.80;;;5.80;99.90;;;;;;5054525;28;20189;-64
2022/11/13 06:41:15;;;;;;;21.70;17.40;;;5.80;99.90;;;;;;5064768;28;20663;-64
2022/11/13 06:43:41;;;;;;;19.73;15.23;;;5.80;99.90;;;;;;5063099;28;20193;-63
2022/11/13 06:46:13;;;;;;;23.30;16.50;;;5.80;99.90;;;;;;5060444;28;20190;-64
2022/11/13 06:48:39;;;;;;;19.10;15.80;;;5.80;99.90;;;;;;5073079;28;20177;-63
2022/11/13 06:51:08;;;;;;;24.07;16.53;;;5.80;99.90;;;;;;5064514;28;20182;-63
2022/11/13 06:53:34;;;;;;;26.40;16.37;;;5.70;99.90;;;;;;5061208;28;20271;-64
2022/11/13 06:56:00;;;;;;;21.63;15.07;;;5.80;99.90;;;;;;5065296;28;20247;-64
2022/11/13 06:58:26;;;;;;;21.37;15.07;;;5.70;99.90;;;;;;5054585;28;20654;-65
2022/11/13 07:00:52;;;;;;;20.03;15.80;;;5.70;99.90;;;;;;5060741;28;20197;-64
2022/11/13 07:03:24;;;;;;;21.97;14.87;;;5.70;99.90;;;;;;5058112;28;20193;-64
2022/11/13 07:05:50;;;;;;;27.17;17.37;;;5.60;99.90;;;;;;5066367;28;20184;-64
2022/11/13 07:08:17;;;;;;;21.13;15.77;;;5.70;99.90;;;;;;5061592;28;20201;-64
2022/11/13 07:10:42;;;;;;;20.73;16.87;;;5.70;99.90;;;;;;5063091;28;20185;-64
2022/11/13 07:13:09;;;;;;;21.77;16.20;;;5.60;99.90;;;;;;5061557;28;20228;-64
2022/11/13 07:15:38;;;;;;;21.37;15.80;;;5.60;99.90;;;;;;5059001;28;20192;-64
2022/11/13 07:18:05;;;;;;;21.03;15.07;;;5.60;99.90;;;;;;5068296;28;20639;-64
2022/11/13 07:20:32;;;;;;;25.27;15.20;;;5.70;99.90;;;;;;5064906;28;20220;-64
2022/11/13 07:22:59;;;;;;;23.17;16.63;;;5.70;99.90;;;;;;5072881;28;20250;-64
2022/11/13 07:25:25;;;;;;;21.13;15.23;;;5.60;99.90;;;;;;5060735;28;20647;-64
2022/11/13 07:27:51;;;;;;;23.43;16.73;;;5.70;99.90;;;;;;5057997;28;20256;-64
2022/11/13 07:30:17;;;;;;;21.67;16.23;;;5.70;99.90;;;;;;5036304;28;20298;-63
2022/11/13 07:32:43;;;;;;;22.53;16.73;;;5.80;99.90;;;;;;5053371;28;20722;-64
2022/11/13 07:35:09;;;;;;;28.10;17.60;;;5.80;99.90;;;;;;5086138;28;20304;-64
2022/11/13 07:37:35;;;;;;;23.27;16.13;;;5.70;99.90;;;;;;5066206;28;20276;-64
2022/11/13 07:40:01;;;;;;;21.90;17.17;;;5.70;99.90;;;;;;5069185;28;20308;-64
2022/11/13 07:42:27;;;;;;;24.60;16.73;;;5.70;99.90;;;;;;5099920;28;20190;-63
2022/11/13 07:44:52;;;;;;;22.93;15.53;;;5.70;99.90;;;;;;5063187;28;20190;-64
2022/11/13 07:47:18;;;;;;;17.90;14.90;;;5.70;99.90;;;;;;5053062;28;20631;-64
2022/11/13 07:49:44;;;;;;;19.17;15.93;;;5.90;99.90;;;;;;5061560;28;20185;-65
2022/11/13 07:52:09;;;;;;;21.13;16.77;;;5.90;99.90;;;;;;5057434;28;20189;-63
2022/11/13 07:54:35;;;;;;;20.00;15.83;;;5.80;99.90;;;;;;5055409;28;20201;-64
2022/11/13 07:57:01;;;;;;;19.70;14.40;;;5.90;99.90;;;;;;5063768;28;20182;-63
2022/11/13 07:59:26;;;;;;;24.57;16.77;;;5.90;99.90;;;;;;5060480;28;20532;-65
2022/11/13 08:01:52;;;;;;;22.17;16.80;;;5.90;99.90;;;;;;5051486;28;20639;-65
2022/11/13 08:04:18;;;;;;;20.73;15.73;;;5.90;99.90;;;;;;5056243;28;20251;-64
2022/11/13 08:06:44;;;;;;;25.13;15.13;;;6.00;99.90;;;;;;5058701;28;20591;-65
2022/11/13 08:09:09;;;;;;;24.87;17.87;;;6.10;99.90;;;;;;5052547;28;20194;-64
2022/11/13 08:11:35;;;;;;;26.30;17.00;;;6.20;99.90;;;;;;5063385;28;20194;-64
2022/11/13 08:14:01;;;;;;;26.73;16.40;;;6.30;99.90;;;;;;5069140;28;20232;-64
2022/11/13 08:16:27;;;;;;;23.07;16.50;;;6.40;99.90;;;;;;5067348;28;20189;-64
2022/11/13 08:18:53;;;;;;;19.53;15.33;;;6.40;99.90;;;;;;5051463;28;20190;-65
2022/11/13 08:21:20;;;;;;;23.33;17.30;;;6.50;99.90;;;;;;5047707;28;20186;-65
2022/11/13 08:23:46;;;;;;;20.07;15.40;;;6.60;99.90;;;;;;5051312;28;20186;-65
2022/11/13 08:26:12;;;;;;;22.87;16.53;;;6.60;99.90;;;;;;5053693;28;20182;-63
2022/11/13 08:28:39;;;;;;;25.70;19.43;;;6.60;99.90;;;;;;5053017;28;20220;-63
2022/11/13 08:31:10;;;;;;;21.10;17.00;;;6.60;99.90;;;;;;5056768;28;20272;-63
2022/11/13 08:33:35;;;;;;;26.20;18.80;;;6.60;99.90;;;;;;5055994;28;20217;-63
2022/11/13 08:36:02;;;;;;;19.57;15.30;;;6.70;99.90;;;;;;5065584;28;20177;-64
2022/11/13 08:38:27;;;;;;;26.47;17.90;;;6.70;99.90;;;;;;5064418;28;20255;-65
2022/11/13 08:40:56;;;;;;;22.93;16.57;;;6.70;99.90;;;;;;5065925;28;20922;-65
2022/11/13 08:43:22;;;;;;;26.00;18.17;;;6.70;99.90;;;;;;5066358;28;20196;-66
2022/11/13 08:45:48;;;;;;;26.03;17.70;;;6.70;99.90;;;;;;5064584;28;20186;-68
2022/11/13 08:48:14;;;;;;;19.83;15.97;;;6.80;99.90;;;;;;5056845;28;20220;-66
2022/11/13 08:50:40;;;;;;;23.07;17.50;;;6.80;99.90;;;;;;5056258;28;20186;-63
2022/11/13 08:53:06;;;;;;;26.40;19.00;;;6.90;99.90;;;;;;5096961;28;20689;-65
2022/11/13 08:55:32;;;;;;;25.50;17.70;;;7.00;99.90;;;;;;5085331;28;20193;-65
2022/11/13 08:58:00;;;;;;;29.10;19.60;;;7.00;99.90;;;;;;5066282;28;20269;-66
2022/11/13 09:00:28;;;;;;;27.37;17.60;;;7.10;99.90;;;;;;5067451;28;20190;-66
2022/11/13 09:02:58;;;;;;;27.97;20.27;;;7.20;99.90;;;;;;5059750;28;20185;-65
2022/11/13 09:05:24;;;;;;;25.27;18.90;;;7.30;99.90;;;;;;5057220;28;20185;-64
2022/11/13 09:07:54;;;;;;;24.97;18.43;;;7.40;99.90;;;;;;5062940;28;20192;-66
2022/11/13 09:10:19;;;;;;;24.73;19.20;;;7.40;99.90;;;;;;5067042;28;20260;-64
2022/11/13 09:12:45;;;;;;;24.10;19.30;;;7.50;99.90;;;;;;5062498;28;20280;-66
2022/11/13 09:15:11;;;;;;;25.80;18.20;;;7.50;99.90;;;;;;5063581;28;20543;-65
2022/11/13 09:17:37;;;;;;;27.93;19.03;;;7.60;99.90;;;;;;5066409;28;20182;-64
2022/11/13 09:20:05;;;;;;;26.17;17.13;;;7.60;99.90;;;;;;5059776;28;20189;-64
2022/11/13 09:22:32;;;;;;;24.20;18.50;;;7.70;99.90;;;;;;5052277;28;20678;-66
2022/11/13 09:24:58;;;;;;;26.33;18.77;;;7.80;99.90;;;;;;5056264;28;20541;-63
2022/11/13 09:27:24;;;;;;;26.40;19.47;;;7.90;99.90;;;;;;5082324;28;20239;-63
2022/11/13 09:29:49;;;;;;;26.47;18.90;;;7.90;99.90;;;;;;5056282;28;20603;-65
2022/11/13 09:32:16;;;;;;;24.43;19.93;;;7.90;99.90;;;;;;5067389;28;20228;-65
2022/11/13 09:34:41;;;;;;;28.17;19.20;;;7.90;99.90;;;;;;5050997;28;20674;-64
2022/11/13 09:37:07;;;;;;;32.70;21.13;;;7.90;99.90;;;;;;5051235;28;20186;-65
2022/11/13 09:39:33;;;;;;;24.77;19.23;;;8.00;99.90;;;;;;5051018;28;20181;-65
2022/11/13 09:42:16;;;;;;;27.53;19.87;;;8.00;99.90;;;;;;5058160;28;20185;-64
2022/11/13 09:44:54;;;;;;;25.67;20.57;;;8.00;99.90;;;;;;5052553;28;20178;-65
2022/11/13 09:47:25;;;;;;;22.30;18.20;;;8.10;99.90;;;;;;5053406;28;20185;-65
2022/11/13 09:50:14;;;;;;;23.47;18.40;;;8.20;99.90;;;;;;5052026;28;20174;-65
2022/11/13 09:52:43;;;;;;;24.60;17.83;;;8.10;99.90;;;;;;5052933;28;20253;-65
2022/11/13 09:55:15;;;;;;;32.77;19.77;;;8.00;99.90;;;;;;5060278;28;20186;-64
2022/11/13 09:57:55;;;;;;;26.77;20.27;;;8.00;99.90;;;;;;5060117;28;20231;-66
2022/11/13 10:00:22;;;;;;;29.10;20.73;;;8.00;99.90;;;;;;5054424;28;20178;-65
2022/11/13 10:03:00;;;;;;;29.73;22.07;;;8.20;99.90;;;;;;5064875;28;20396;-66
2022/11/13 10:05:34;;;;;;;29.37;20.73;;;8.30;99.90;;;;;;5055155;28;20227;-66
2022/11/13 10:08:23;;;;;;;28.07;21.87;;;8.40;99.90;;;;;;5050757;28;20291;-65
2022/11/13 10:10:54;;;;;;;26.53;20.70;;;8.40;99.90;;;;;;5057256;28;20236;-65
2022/11/13 10:13:32;;;;;;;36.87;21.87;;;8.50;99.90;;;;;;5050306;28;20771;-67
2022/11/13 10:16:10;;;;;;;28.60;20.40;;;8.60;99.90;;;;;;5096067;28;20575;-68
2022/11/13 10:18:37;;;;;;;26.00;19.37;;;8.70;99.90;;;;;;5062123;28;20707;-65
2022/11/13 10:21:43;;;;;;;27.80;19.63;;;8.70;99.90;;;;;;5083127;28;20182;-64
2022/11/13 10:24:20;;;;;;;27.77;19.60;;;8.80;99.90;;;;;;5059076;28;20217;-64
2022/11/13 10:26:46;;;;;;;22.43;17.33;;;9.00;99.90;;;;;;5054807;28;20186;-64
2022/11/13 10:29:14;;;;;;;27.90;19.07;;;9.20;99.90;;;;;;5061815;28;20524;-65
2022/11/13 10:31:51;;;;;;;26.67;17.90;;;9.20;99.90;;;;;;5071826;28;20182;-65
2022/11/13 10:34:18;;;;;;;26.77;17.40;;;9.20;99.90;;;;;;5089153;28;20580;-66
2022/11/13 10:37:02;;;;;;;25.10;16.90;;;9.20;99.90;;;;;;5066370;28;20645;-66
2022/11/13 10:39:28;;;;;;;23.07;17.63;;;9.40;99.90;;;;;;5055905;28;20264;-63
2022/11/13 10:41:54;;;;;;;23.87;16.40;;;9.50;99.90;;;;;;5069143;28;20660;-63
2022/11/13 10:44:25;;;;;;;25.33;15.83;;;9.50;99.90;;;;;;5053718;28;20712;-64
2022/11/13 10:47:16;;;;;;;26.27;17.37;;;9.60;99.90;;;;;;5054735;28;20557;-65
2022/11/13 10:49:41;;;;;;;23.90;16.90;;;9.90;99.90;;;;;;5053656;28;20221;-64
2022/11/13 10:52:23;;;;;;;20.67;14.43;;;10.10;99.90;;;;;;5058124;28;20193;-65
2022/11/13 10:54:49;;;;;;;21.27;14.73;;;10.40;99.90;;;;;;5056677;28;20269;-67
2022/11/13 10:57:32;;;;;;;21.33;14.50;;;10.50;99.90;;;;;;5053568;28;20194;-66
2022/11/13 10:59:57;;;;;;;24.17;15.20;;;10.40;99.90;;;;;;5053894;28;20196;-65
2022/11/13 11:02:25;;;;;;;18.13;12.40;;;10.50;99.90;;;;;;5052578;28;20190;-65
2022/11/13 11:05:05;;;;;;;15.85;13.50;;;10.60;99.90;;;;;;5064175;28;20233;-64
2022/11/13 11:07:39;;;;;;;15.57;12.63;;;10.60;99.90;;;;;;5055057;28;20292;-65
2022/11/13 11:10:31;;;;;;;17.42;12.85;;;10.70;99.90;;;;;;5054133;28;20257;-64
2022/11/13 11:13:09;;;;;;;15.98;11.88;;;11.00;99.90;;;;;;5062561;28;20223;-62
2022/11/13 11:15:41;;;;;;;15.90;11.77;;;11.20;99.90;;;;;;5059003;28;20182;-64
2022/11/13 11:18:55;;;;;;;15.35;10.88;;;11.50;99.90;;;;;;5054057;28;20194;-64
2022/11/13 11:21:27;;;;;;;13.15;10.38;;;11.70;99.90;;;;;;5068026;28;20238;-65
2022/11/13 11:24:13;;;;;;;13.13;9.88;;;11.80;99.90;;;;;;5053601;28;20201;-65
2022/11/13 11:26:48;;;;;;;16.05;11.00;;;12.00;99.90;;;;;;5059564;28;20634;-66
2022/11/13 11:29:19;;;;;;;14.15;9.95;;;12.00;99.90;;;;;;5053272;28;20546;-67
2022/11/13 11:32:03;;;;;;;15.10;11.07;;;12.00;99.90;;;;;;5053633;28;20264;-65
2022/11/13 11:34:46;;;;;;;14.80;10.27;;;12.20;99.90;;;;;;5055919;28;20639;-65
2022/11/13 11:37:14;;;;;;;10.85;8.77;;;12.20;99.90;;;;;;5070155;28;20181;-67
2022/11/13 11:39:52;;;;;;;15.68;10.32;;;12.10;99.90;;;;;;5061368;28;20181;-65
2022/11/13 11:42:23;;;;;;;15.20;9.88;;;12.10;99.90;;;;;;5053149;28;20642;-66
2022/11/13 11:44:49;;;;;;;12.55;8.48;;;12.30;99.90;;;;;;5060284;28;20193;-64
2022/11/13 11:47:16;;;;;;;11.88;9.13;;;12.40;99.90;;;;;;5062331;28;20559;-64
2022/11/13 11:49:45;;;;;;;15.25;9.27;;;12.60;99.90;;;;;;5052727;28;20232;-64
2022/11/13 11:52:22;;;;;;;14.95;8.60;;;12.80;99.90;;;;;;5056310;28;20677;-65
2022/11/13 11:55:03;;;;;;;10.55;8.38;;;12.80;99.90;;;;;;5052391;28;20237;-65
2022/11/13 11:57:56;;;;;;;13.85;10.00;;;12.80;99.90;;;;;;5065357;28;20680;-64
2022/11/13 12:00:22;;;;;;;9.38;7.97;;;13.00;99.90;;;;;;5052343;28;20186;-64
2022/11/13 12:02:54;;;;;;;13.13;8.18;;;13.30;99.90;;;;;;5058468;28;20749;-65
2022/11/13 12:05:28;;;;;;;9.50;8.27;;;12.90;99.90;;;;;;5063460;28;20175;-65
2022/11/13 12:08:18;;;;;;;10.05;7.60;;;12.80;99.90;;;;;;5063479;28;20189;-65
2022/11/13 12:11:01;;;;;;;11.27;8.60;;;12.80;99.90;;;;;;5055809;28;20181;-66
2022/11/13 12:13:36;;;;;;;11.40;8.55;;;13.00;99.90;;;;;;5052564;28;20244;-64
2022/11/13 12:16:21;;;;;;;12.88;7.70;;;13.40;99.90;;;;;;5053089;28;20256;-64
2022/11/13 12:19:06;;;;;;;10.25;7.45;;;13.60;99.90;;;;;;5052539;28;20588;-65
2022/11/13 12:21:51;;;;;;;9.95;6.63;;;13.60;99.90;;;;;;5067668;28;20181;-64
2022/11/13 12:24:41;;;;;;;9.68;7.05;;;13.80;99.90;;;;;;5055527;28;20225;-64
2022/11/13 12:27:56;;;;;;;11.05;7.25;;;13.90;99.90;;;;;;5051570;28;20200;-64
2022/11/13 12:30:55;;;;;;;9.00;6.53;;;14.10;99.90;;;;;;5058923;28;20276;-64
2022/11/13 12:33:41;;;;;;;7.10;6.10;;;13.80;99.90;;;;;;5060456;28;20251;-64
2022/11/13 12:36:11;;;;;;;8.85;6.45;;;13.80;99.90;;;;;;5056385;28;20574;-63
2022/11/13 12:38:36;;;;;;;6.30;5.75;;;13.80;99.90;;;;;;5067307;28;20185;-64
2022/11/13 12:41:17;;;;;;;7.35;5.40;;;13.80;99.90;;;;;;5065860;28;20212;-64
2022/11/13 12:44:01;;;;;;;9.80;5.95;;;13.90;99.90;;;;;;5065347;28;20189;-63
2022/11/13 12:46:39;;;;;;;6.20;5.13;;;13.80;99.90;;;;;;5054561;28;20221;-64
2022/11/13 12:49:22;;;;;;;7.65;6.10;;;13.80;99.90;;;;;;5056168;28;20272;-63